Time;durP1;ratioP1;P1;durP2;ratioP2;P2;SDS_P1;SDS_P2;PMS_P1;PMS_P2;Temp;Humidity;BMP_temperature;BMP_pressure;BME280_temperature;BME280_humidity;BME280_pressure;Samples;Min_cycle;Max_cycle;Signal;HPM_P1;HPM_P2
2021/11/05 00:01:55;;;;;;;4.47;0.70;;;;;;;10.02;76.61;101726.47;4995574;28;20042;-57
2021/11/05 00:04:21;;;;;;;2.78;0.68;;;;;;;10.00;76.34;101726.41;4990830;28;20378;-56
2021/11/05 00:06:46;;;;;;;5.07;0.70;;;;;;;9.94;76.50;101731.44;4995684;28;20564;-58
2021/11/05 00:09:11;;;;;;;2.40;0.80;;;;;;;9.88;76.47;101733.88;4994340;28;20049;-58
2021/11/05 00:11:37;;;;;;;3.00;0.68;;;;;;;9.77;76.10;101730.97;4991668;28;20052;-57
2021/11/05 00:14:03;;;;;;;2.17;0.55;;;;;;;9.67;76.09;101736.72;4991383;28;20037;-59
2021/11/05 00:16:28;;;;;;;2.33;0.60;;;;;;;9.58;76.08;101732.94;4997280;28;20361;-57
2021/11/05 00:18:54;;;;;;;2.72;0.70;;;;;;;9.50;75.73;101727.53;4986490;28;20045;-57
2021/11/05 00:21:21;;;;;;;2.30;0.60;;;;;;;9.46;75.78;101727.34;4987254;28;20133;-58
2021/11/05 00:23:46;;;;;;;2.63;0.90;;;;;;;9.41;75.79;101726.34;4992157;28;20216;-57
2021/11/05 00:26:12;;;;;;;3.95;0.82;;;;;;;9.38;76.21;101737.56;4994098;28;20041;-58
2021/11/05 00:28:38;;;;;;;2.22;0.75;;;;;;;9.43;76.41;101743.78;4995431;28;20037;-57
2021/11/05 00:31:03;;;;;;;2.75;0.82;;;;;;;9.43;76.77;101742.88;4989483;28;20456;-58
2021/11/05 00:33:29;;;;;;;3.78;0.80;;;;;;;9.40;76.46;101748.88;4990757;28;20549;-56
2021/11/05 00:35:54;;;;;;;3.20;0.80;;;;;;;9.36;76.63;101747.00;4992154;28;20592;-57
2021/11/05 00:38:20;;;;;;;3.22;0.70;;;;;;;9.35;76.51;101756.53;4995260;28;20155;-58
2021/11/05 00:40:45;;;;;;;2.40;0.70;;;;;;;9.30;76.71;101758.13;4992045;28;20034;-56
2021/11/05 00:43:10;;;;;;;3.30;0.80;;;;;;;9.21;76.30;101760.41;4993787;28;20066;-58
2021/11/05 00:45:36;;;;;;;4.45;0.80;;;;;;;9.13;76.65;101763.59;4998971;28;20037;-58
2021/11/05 00:48:01;;;;;;;5.07;1.00;;;;;;;9.10;76.91;101772.16;4996769;28;20045;-58
2021/11/05 00:50:27;;;;;;;4.97;0.90;;;;;;;9.09;76.69;101762.59;4993428;28;20042;-59
2021/11/05 00:52:52;;;;;;;3.95;1.00;;;;;;;9.15;77.06;101769.75;4989953;28;20069;-58
2021/11/05 00:55:17;;;;;;;3.10;0.90;;;;;;;9.25;77.37;101772.69;4992529;28;20049;-57
2021/11/05 00:57:43;;;;;;;6.78;1.00;;;;;;;9.34;77.02;101778.19;4994022;28;20049;-56
2021/11/05 01:00:11;;;;;;;4.88;0.98;;;;;;;9.40;77.28;101780.09;4992295;28;20132;-58
2021/11/05 01:02:37;;;;;;;4.80;1.15;;;;;;;9.48;77.54;101782.97;4991984;28;20371;-57
2021/11/05 01:05:03;;;;;;;12.00;1.33;;;;;;;9.61;77.50;101778.19;4983816;28;21016;-58
2021/11/05 01:07:29;;;;;;;13.05;1.20;;;;;;;9.75;77.64;101781.25;4992702;28;20065;-58
2021/11/05 01:09:55;;;;;;;10.30;1.20;;;;;;;9.90;77.79;101778.19;4994941;28;20042;-57
2021/11/05 01:12:20;;;;;;;10.15;1.10;;;;;;;9.97;77.54;101780.16;4996256;28;20061;-58
2021/11/05 01:14:47;;;;;;;8.07;1.17;;;;;;;10.02;77.40;101776.84;4986916;28;20069;-58
2021/11/05 01:17:12;;;;;;;14.15;1.13;;;;;;;10.03;77.94;101776.03;5009714;28;20507;-58
2021/11/05 01:19:38;;;;;;;7.13;1.38;;;;;;;10.09;77.64;101772.72;4982985;28;20090;-58
2021/11/05 01:22:04;;;;;;;7.07;1.00;;;;;;;10.13;77.42;101777.16;4994091;28;20492;-58
2021/11/05 01:24:29;;;;;;;5.05;0.98;;;;;;;10.16;77.13;101783.41;4994656;28;20122;-59
2021/11/05 01:26:55;;;;;;;6.68;1.17;;;;;;;10.15;77.56;101789.41;4984775;28;20103;-58
2021/11/05 01:29:20;;;;;;;3.35;0.90;;;;;;;10.20;77.20;101788.69;4994393;28;20575;-57
2021/11/05 01:31:46;;;;;;;7.60;1.20;;;;;;;10.22;77.44;101789.63;4994172;28;20227;-57
2021/11/05 01:34:11;;;;;;;6.88;1.00;;;;;;;10.22;77.41;101790.50;4989607;28;20523;-58
2021/11/05 01:36:37;;;;;;;8.43;1.00;;;;;;;10.22;76.92;101800.94;4993565;28;20065;-58
2021/11/05 01:39:03;;;;;;;3.65;0.90;;;;;;;10.20;76.78;101791.28;4988500;28;20469;-58
2021/11/05 01:41:28;;;;;;;2.35;0.75;;;;;;;10.21;77.05;101795.66;4992856;28;20061;-57
2021/11/05 01:43:54;;;;;;;5.18;1.10;;;;;;;10.15;77.25;101799.84;4989406;28;20431;-58
2021/11/05 01:46:20;;;;;;;4.50;1.00;;;;;;;10.08;76.54;101795.28;4995480;28;20535;-57
2021/11/05 01:48:45;;;;;;;8.93;1.08;;;;;;;10.01;76.78;101793.31;5003329;28;20388;-58
2021/11/05 01:51:11;;;;;;;4.13;0.80;;;;;;;9.93;76.83;101802.66;4988346;28;20640;-57
2021/11/05 01:53:36;;;;;;;4.45;0.90;;;;;;;9.87;76.68;101805.06;4990718;28;20077;-59
2021/11/05 01:56:02;;;;;;;3.30;1.00;;;;;;;9.79;76.65;101809.13;4992698;28;20045;-56
2021/11/05 01:58:27;;;;;;;3.10;0.80;;;;;;;9.74;76.80;101802.91;4994116;28;20164;-58
2021/11/05 02:00:53;;;;;;;7.47;1.08;;;;;;;9.70;76.54;101801.91;4993345;28;20045;-57
2021/11/05 02:03:18;;;;;;;3.80;1.08;;;;;;;9.63;76.25;101812.09;4992319;28;20482;-59
2021/11/05 02:05:45;;;;;;;4.60;1.00;;;;;;;9.53;76.38;101812.63;4993375;28;20052;-57
2021/11/05 02:08:11;;;;;;;2.28;0.88;;;;;;;9.43;76.08;101816.66;4988728;28;20152;-59
2021/11/05 02:10:38;;;;;;;1.77;0.70;;;;;;;9.34;75.70;101818.94;4995911;28;20697;-56
2021/11/05 02:13:03;;;;;;;2.22;0.80;;;;;;;9.24;75.67;101820.34;4983198;28;20737;-57
2021/11/05 02:15:28;;;;;;;2.20;0.70;;;;;;;9.14;75.88;101823.50;4993742;28;20132;-57
2021/11/05 02:17:54;;;;;;;3.33;0.70;;;;;;;9.03;75.95;101824.81;4996171;28;20045;-58
2021/11/05 02:20:22;;;;;;;2.35;0.88;;;;;;;8.96;75.85;101826.31;4992120;28;20091;-57
2021/11/05 02:22:48;;;;;;;4.43;0.70;;;;;;;8.88;76.05;101827.78;4988218;28;20121;-59
2021/11/05 02:25:14;;;;;;;2.25;0.70;;;;;;;8.78;76.08;101830.00;5000773;28;20095;-58
2021/11/05 02:27:39;;;;;;;1.33;0.70;;;;;;;8.72;76.04;101840.19;4999380;28;20048;-58
2021/11/05 02:30:07;;;;;;;1.08;0.60;;;;;;;8.68;76.17;101828.78;4986438;28;20068;-57
2021/11/05 02:32:37;;;;;;;3.35;0.73;;;;;;;8.61;76.34;101842.38;4997870;28;20099;-56
2021/11/05 02:35:04;;;;;;;1.52;0.70;;;;;;;8.54;75.82;101841.25;5017065;28;20695;-56
2021/11/05 02:37:29;;;;;;;1.42;0.63;;;;;;;8.49;75.82;101841.91;4999097;28;20044;-56
2021/11/05 02:39:55;;;;;;;1.98;0.68;;;;;;;8.41;75.89;101845.97;4993859;28;20050;-56
2021/11/05 02:42:20;;;;;;;1.58;0.70;;;;;;;8.36;75.82;101837.97;5001053;28;20069;-57
2021/11/05 02:44:47;;;;;;;0.93;0.57;;;;;;;8.39;75.75;101839.81;5004481;28;20053;-56
2021/11/05 02:47:18;;;;;;;2.08;0.60;;;;;;;8.41;75.76;101852.06;4995814;28;20301;-58
2021/11/05 02:49:44;;;;;;;3.75;0.50;;;;;;;8.39;75.94;101840.72;5000637;28;20371;-57
2021/11/05 02:52:09;;;;;;;1.85;0.60;;;;;;;8.32;76.22;101843.91;4992296;28;20073;-58
2021/11/05 02:54:35;;;;;;;2.30;0.60;;;;;;;8.29;75.92;101848.06;4998901;28;20556;-57
2021/11/05 02:57:00;;;;;;;1.60;0.70;;;;;;;8.23;76.23;101845.25;4990079;28;20052;-57
2021/11/05 02:59:25;;;;;;;3.08;0.73;;;;;;;8.22;76.02;101846.94;4993242;28;20532;-59
2021/11/05 03:01:51;;;;;;;1.77;0.63;;;;;;;8.15;76.18;101848.44;5016483;28;20128;-58
2021/11/05 03:04:16;;;;;;;2.95;0.70;;;;;;;8.18;76.18;101855.44;4991095;28;20053;-58
2021/11/05 03:06:44;;;;;;;4.15;0.70;;;;;;;8.24;75.75;101855.66;4996802;28;20077;-58
2021/11/05 03:09:10;;;;;;;2.75;0.63;;;;;;;8.25;76.00;101856.56;4992755;28;20104;-57
2021/11/05 03:11:36;;;;;;;3.50;0.60;;;;;;;8.24;76.23;101852.19;4999384;28;20045;-57
2021/11/05 03:14:02;;;;;;;1.85;0.60;;;;;;;8.22;75.75;101862.53;4991830;28;20103;-58
2021/11/05 03:16:27;;;;;;;2.42;0.60;;;;;;;8.18;75.78;101860.63;4996097;28;20060;-57
2021/11/05 03:18:52;;;;;;;2.75;0.63;;;;;;;8.19;75.80;101858.91;4990566;28;20144;-56
2021/11/05 03:21:18;;;;;;;2.47;0.80;;;;;;;8.20;75.58;101869.38;4996139;28;20052;-57
2021/11/05 03:23:44;;;;;;;2.88;0.70;;;;;;;8.18;75.71;101870.13;4997354;28;21455;-57
2021/11/05 03:26:10;;;;;;;3.05;0.70;;;;;;;8.12;76.04;101870.78;4989804;28;20096;-56
2021/11/05 03:28:35;;;;;;;6.25;0.70;;;;;;;8.15;75.70;101871.81;4994602;28;20496;-57
2021/11/05 03:31:00;;;;;;;3.60;0.80;;;;;;;8.21;75.58;101876.34;4985974;28;20058;-58
2021/11/05 03:33:26;;;;;;;3.85;0.70;;;;;;;8.22;75.81;101874.63;4992221;28;20029;-57
2021/11/05 03:35:51;;;;;;;4.50;0.90;;;;;;;8.28;76.28;101888.75;4998564;28;20045;-58
2021/11/05 03:38:16;;;;;;;4.60;0.82;;;;;;;8.48;76.37;101892.13;4989519;28;20928;-56
2021/11/05 03:40:45;;;;;;;6.25;0.70;;;;;;;8.59;76.36;101880.44;4999507;28;20487;-57
2021/11/05 03:43:10;;;;;;;3.05;0.70;;;;;;;8.61;76.88;101891.75;4994530;28;20037;-58
2021/11/05 03:45:36;;;;;;;2.90;0.65;;;;;;;8.55;76.38;101892.41;5006187;28;20147;-57
2021/11/05 03:48:01;;;;;;;1.92;0.68;;;;;;;8.48;76.13;101895.59;4990512;28;20044;-57
2021/11/05 03:50:28;;;;;;;6.03;0.70;;;;;;;8.42;76.45;101897.09;4994366;28;20658;-57
2021/11/05 03:52:54;;;;;;;2.08;0.50;;;;;;;8.40;76.24;101909.16;4989180;28;20077;-57
2021/11/05 03:55:19;;;;;;;2.58;0.70;;;;;;;8.40;76.18;101907.44;4994630;28;20226;-57
2021/11/05 03:57:45;;;;;;;3.08;0.70;;;;;;;8.32;75.96;101908.84;5022189;28;20336;-57
2021/11/05 04:00:11;;;;;;;2.22;0.50;;;;;;;8.27;76.09;101909.47;4997937;28;20046;-56
2021/11/05 04:02:37;;;;;;;3.40;0.60;;;;;;;8.26;75.93;101913.78;4994943;28;20068;-57
2021/11/05 04:05:04;;;;;;;3.42;0.70;;;;;;;8.23;76.04;101910.19;4990537;28;20670;-57
2021/11/05 04:07:29;;;;;;;2.88;0.60;;;;;;;8.19;76.09;101918.66;4991398;28;20108;-58
2021/11/05 04:09:55;;;;;;;3.70;0.82;;;;;;;8.20;76.72;101920.44;4991978;28;20672;-57
2021/11/05 04:12:20;;;;;;;1.85;0.70;;;;;;;8.23;76.48;101925.78;4992843;28;20664;-57
2021/11/05 04:14:45;;;;;;;3.05;0.50;;;;;;;8.36;76.92;101936.72;4994981;28;20045;-57
2021/11/05 04:17:13;;;;;;;2.53;0.63;;;;;;;8.47;76.69;101931.97;4990840;28;20050;-58
2021/11/05 04:19:40;;;;;;;3.30;0.70;;;;;;;8.57;76.84;101941.88;4994368;28;20470;-57
2021/11/05 04:22:05;;;;;;;2.70;0.57;;;;;;;8.63;77.06;101939.50;4997812;28;20496;-57
2021/11/05 04:24:30;;;;;;;3.28;0.63;;;;;;;8.70;76.83;101940.63;4998971;28;20045;-59
2021/11/05 04:26:56;;;;;;;2.15;0.60;;;;;;;8.75;77.20;101946.88;4982872;28;20076;-57
2021/11/05 04:29:21;;;;;;;2.90;0.65;;;;;;;8.79;76.85;101952.25;4995977;28;20556;-57
2021/11/05 04:31:47;;;;;;;2.63;0.60;;;;;;;8.81;76.92;101949.72;4988296;28;20057;-57
2021/11/05 04:34:12;;;;;;;3.38;0.60;;;;;;;8.80;76.54;101958.34;4996149;28;20193;-57
2021/11/05 04:36:39;;;;;;;2.22;0.60;;;;;;;8.72;76.95;101960.63;5014551;28;20161;-58
2021/11/05 04:39:05;;;;;;;1.25;0.60;;;;;;;8.66;76.73;101959.53;4988572;28;20034;-58
2021/11/05 04:41:30;;;;;;;2.38;0.60;;;;;;;8.57;76.73;101965.25;4997645;28;20053;-57
2021/11/05 04:43:55;;;;;;;2.17;0.60;;;;;;;8.48;76.51;101963.19;4988245;28;20408;-57
2021/11/05 04:46:21;;;;;;;2.22;0.50;;;;;;;8.40;76.21;101975.00;4997154;28;20653;-57
2021/11/05 04:48:47;;;;;;;1.95;0.60;;;;;;;8.30;76.41;101972.84;4986892;28;20034;-56
2021/11/05 04:51:12;;;;;;;2.30;0.60;;;;;;;8.22;76.34;101966.44;4995752;28;20477;-57
2021/11/05 04:53:38;;;;;;;3.35;0.80;;;;;;;8.16;76.33;101981.78;4997290;28;20388;-57
2021/11/05 04:56:04;;;;;;;3.38;0.70;;;;;;;8.14;75.96;101978.22;4995310;28;20120;-57
2021/11/05 04:58:29;;;;;;;2.13;0.70;;;;;;;8.11;76.12;101985.91;4991958;28;20093;-57
2021/11/05 05:00:55;;;;;;;2.30;0.68;;;;;;;8.09;76.18;101987.53;4986438;28;20345;-57
2021/11/05 05:03:20;;;;;;;3.78;0.60;;;;;;;8.11;76.64;101994.56;4992209;28;20402;-57
2021/11/05 05:05:45;;;;;;;2.88;0.80;;;;;;;8.16;76.41;101999.97;4990776;28;20556;-58
2021/11/05 05:08:10;;;;;;;2.45;0.70;;;;;;;8.15;76.13;101995.59;4990281;28;20511;-57
2021/11/05 05:10:36;;;;;;;5.35;0.70;;;;;;;8.20;76.69;102000.97;4994693;28;20028;-58
2021/11/05 05:13:02;;;;;;;4.03;0.75;;;;;;;8.25;76.38;102007.22;4991544;28;20250;-57
2021/11/05 05:15:28;;;;;;;2.42;0.57;;;;;;;8.26;76.60;102007.31;4988832;28;20058;-58
2021/11/05 05:17:53;;;;;;;1.25;0.57;;;;;;;8.30;76.68;102008.28;4991551;28;20042;-58
2021/11/05 05:20:20;;;;;;;2.03;0.70;;;;;;;8.26;76.65;102014.19;4997848;28;20108;-57
2021/11/05 05:22:47;;;;;;;2.72;0.70;;;;;;;8.20;76.19;102009.66;4992932;28;20280;-60
2021/11/05 05:25:13;;;;;;;2.88;0.77;;;;;;;8.14;76.20;102025.88;4991594;28;20053;-57
2021/11/05 05:27:39;;;;;;;1.40;0.70;;;;;;;8.09;75.98;102026.50;4992676;28;20140;-58
2021/11/05 05:30:07;;;;;;;2.95;0.85;;;;;;;8.09;76.14;102026.50;4996562;28;20042;-58
2021/11/05 05:32:32;;;;;;;3.92;0.90;;;;;;;8.06;76.21;102026.38;4988773;28;20462;-58
2021/11/05 05:34:58;;;;;;;3.22;0.82;;;;;;;8.01;76.19;102033.06;4992687;28;20468;-58
2021/11/05 05:37:24;;;;;;;4.30;0.90;;;;;;;7.95;76.14;102032.81;4996664;28;20052;-57
2021/11/05 05:39:49;;;;;;;1.42;0.73;;;;;;;7.89;75.93;102036.03;4999710;28;20145;-58
2021/11/05 05:42:14;;;;;;;3.08;1.00;;;;;;;7.84;76.27;102041.88;4992867;28;20072;-57
2021/11/05 05:44:40;;;;;;;2.85;0.82;;;;;;;7.81;76.29;102044.34;5000278;28;20045;-58
2021/11/05 05:47:06;;;;;;;4.25;1.15;;;;;;;7.83;76.10;102042.69;4988527;28;20116;-58
2021/11/05 05:49:32;;;;;;;4.03;1.20;;;;;;;7.91;76.29;102046.50;4998923;28;20041;-57
2021/11/05 05:51:57;;;;;;;5.10;1.17;;;;;;;7.98;76.21;102052.03;4992785;28;20078;-57
2021/11/05 05:54:22;;;;;;;2.85;1.10;;;;;;;7.99;76.46;102056.38;5002335;28;20100;-55
2021/11/05 05:56:48;;;;;;;2.67;0.93;;;;;;;7.96;76.14;102056.25;4990636;28;20754;-60
2021/11/05 05:59:13;;;;;;;6.65;1.42;;;;;;;7.96;76.60;102063.16;4997495;28;20127;-56
2021/11/05 06:01:39;;;;;;;3.17;1.27;;;;;;;7.89;76.19;102061.13;4996528;28;20490;-58
2021/11/05 06:04:04;;;;;;;3.40;1.08;;;;;;;7.85;76.31;102065.31;4995485;28;20148;-57
2021/11/05 06:06:30;;;;;;;3.85;1.23;;;;;;;7.81;76.00;102067.72;4999719;28;20152;-57
2021/11/05 06:08:56;;;;;;;1.98;1.20;;;;;;;7.77;76.34;102070.97;4988880;28;20587;-56
2021/11/05 06:11:22;;;;;;;3.63;1.20;;;;;;;7.82;76.28;102069.47;5002737;28;20091;-57
2021/11/05 06:13:47;;;;;;;4.97;1.60;;;;;;;7.86;76.49;102080.06;4990321;28;20045;-54
2021/11/05 06:16:13;;;;;;;3.40;1.25;;;;;;;7.95;76.90;102083.06;4997920;28;20775;-57
2021/11/05 06:18:38;;;;;;;3.53;1.40;;;;;;;8.03;76.67;102088.59;4995985;28;20604;-57
2021/11/05 06:21:04;;;;;;;5.07;1.10;;;;;;;8.15;76.81;102091.69;4978211;28;20426;-58
2021/11/05 06:23:29;;;;;;;5.22;1.55;;;;;;;8.22;77.22;102093.75;5001785;28;20286;-57
2021/11/05 06:25:55;;;;;;;5.70;1.50;;;;;;;8.29;77.26;102102.69;4994005;28;20046;-58
2021/11/05 06:28:21;;;;;;;5.63;1.70;;;;;;;8.37;77.24;102107.38;4995393;28;20040;-58
2021/11/05 06:30:46;;;;;;;4.68;1.67;;;;;;;8.45;77.13;102113.81;4991752;28;20535;-57
2021/11/05 06:33:11;;;;;;;7.20;1.95;;;;;;;8.50;77.33;102112.28;4993331;28;20160;-57
2021/11/05 06:35:37;;;;;;;4.32;1.70;;;;;;;8.53;77.13;102108.94;5001392;28;20084;-56
2021/11/05 06:38:03;;;;;;;6.55;1.83;;;;;;;8.51;76.96;102116.66;4995604;28;20079;-56
2021/11/05 06:40:28;;;;;;;5.97;1.55;;;;;;;8.45;77.08;102120.72;5000718;28;20038;-57
2021/11/05 06:42:54;;;;;;;4.30;1.40;;;;;;;8.39;76.83;102118.75;4992810;28;20073;-55
2021/11/05 06:45:20;;;;;;;3.75;1.17;;;;;;;8.33;77.15;102126.28;4999594;28;20431;-58
2021/11/05 06:47:46;;;;;;;4.28;1.40;;;;;;;8.28;76.53;102125.19;4996675;28;20110;-57
2021/11/05 06:50:12;;;;;;;4.18;1.58;;;;;;;8.23;76.66;102133.59;4992602;28;20928;-59
2021/11/05 06:52:38;;;;;;;2.85;1.45;;;;;;;8.20;76.55;102136.94;5003664;28;20048;-58
2021/11/05 06:55:05;;;;;;;3.80;1.33;;;;;;;8.26;76.78;102149.31;4983212;28;20053;-57
2021/11/05 06:57:30;;;;;;;5.60;1.50;;;;;;;8.34;76.93;102148.84;4995298;28;20282;-57
2021/11/05 06:59:57;;;;;;;6.57;1.80;;;;;;;8.44;76.82;102145.81;5000339;28;20049;-57
2021/11/05 07:02:23;;;;;;;7.55;2.13;;;;;;;8.54;77.31;102154.88;5005537;28;20044;-58
2021/11/05 07:04:48;;;;;;;6.53;1.70;;;;;;;8.70;77.15;102157.28;4991646;28;20147;-57
2021/11/05 07:07:13;;;;;;;5.25;2.00;;;;;;;8.75;77.08;102163.56;4990216;28;20051;-57
2021/11/05 07:09:39;;;;;;;5.45;1.77;;;;;;;8.72;77.30;102168.63;4992854;28;20544;-57
2021/11/05 07:12:05;;;;;;;4.40;1.95;;;;;;;8.71;77.31;102164.28;5028019;28;20033;-57
2021/11/05 07:14:31;;;;;;;6.38;2.30;;;;;;;8.70;77.42;102170.31;4999006;28;20061;-58
2021/11/05 07:16:56;;;;;;;7.38;2.00;;;;;;;8.67;77.13;102175.34;4987373;28;20502;-57
2021/11/05 07:19:25;;;;;;;6.05;2.03;;;;;;;8.69;77.16;102180.63;4996344;28;20109;-59
2021/11/05 07:22:02;;;;;;;5.53;1.80;;;;;;;8.64;77.25;102190.84;4998505;28;20481;-57
2021/11/05 07:24:29;;;;;;;7.70;2.22;;;;;;;8.63;77.02;102193.38;5000844;28;20060;-58
2021/11/05 07:26:56;;;;;;;7.65;1.90;;;;;;;8.63;77.13;102196.84;4991143;28;20073;-57
2021/11/05 07:29:28;;;;;;;5.18;2.30;;;;;;;8.69;77.19;102207.50;4996469;28;20183;-57
2021/11/05 07:31:56;;;;;;;10.32;2.60;;;;;;;8.85;77.37;102211.63;4998397;28;20037;-58
2021/11/05 07:34:22;;;;;;;10.20;2.83;;;;;;;9.04;77.46;102214.16;4992130;28;20042;-56
2021/11/05 07:36:47;;;;;;;9.73;2.55;;;;;;;9.17;77.56;102212.94;5008321;28;20037;-58
2021/11/05 07:39:13;;;;;;;9.23;2.85;;;;;;;9.28;77.40;102224.66;4993903;28;20053;-57
2021/11/05 07:41:38;;;;;;;6.78;2.55;;;;;;;9.31;77.27;102225.69;4997259;28;20049;-57
2021/11/05 07:44:04;;;;;;;11.00;2.80;;;;;;;9.33;77.28;102225.78;4993932;28;20050;-59
2021/11/05 07:46:30;;;;;;;9.27;2.78;;;;;;;9.31;77.29;102235.22;4992955;28;20461;-58
2021/11/05 07:48:55;;;;;;;9.02;2.78;;;;;;;9.31;77.14;102245.63;4991930;28;20045;-57
2021/11/05 07:51:20;;;;;;;8.50;2.72;;;;;;;9.36;77.49;102247.59;4985979;28;20042;-58
2021/11/05 07:53:46;;;;;;;8.20;3.05;;;;;;;9.42;77.33;102254.75;4987645;28;20064;-59
2021/11/05 07:56:12;;;;;;;10.60;2.88;;;;;;;9.48;77.30;102259.31;4990480;28;20592;-58
2021/11/05 07:58:38;;;;;;;10.60;2.80;;;;;;;9.55;77.81;102251.81;4997229;28;20568;-61
2021/11/05 08:01:03;;;;;;;7.85;2.65;;;;;;;9.68;77.71;102256.69;4983196;28;20049;-57
2021/11/05 08:03:29;;;;;;;8.95;3.05;;;;;;;9.87;77.46;102253.06;4998356;28;20584;-58
2021/11/05 08:05:54;;;;;;;9.90;3.30;;;;;;;10.12;77.55;102258.34;4995178;28;20062;-58
2021/11/05 08:08:20;;;;;;;10.77;3.55;;;;;;;10.35;77.77;102268.78;4995415;28;20498;-59
2021/11/05 08:10:45;;;;;;;9.27;3.67;;;;;;;10.60;77.61;102274.03;4989790;28;20037;-56
2021/11/05 08:13:11;;;;;;;9.98;3.30;;;;;;;10.81;78.05;102266.94;4991809;28;20383;-57
2021/11/05 08:15:36;;;;;;;13.05;3.10;;;;;;;10.98;77.64;102276.22;4995993;28;20129;-56
2021/11/05 08:18:02;;;;;;;11.30;2.90;;;;;;;11.12;77.92;102279.31;4993903;28;20132;-56
2021/11/05 08:20:27;;;;;;;9.15;2.50;;;;;;;11.26;77.96;102279.78;4988177;28;20037;-58
2021/11/05 08:22:53;;;;;;;7.95;2.30;;;;;;;11.29;77.99;102280.75;4977262;28;20379;-59
2021/11/05 08:25:19;;;;;;;8.88;2.22;;;;;;;11.25;77.49;102285.84;4992687;28;20042;-58
2021/11/05 08:27:44;;;;;;;8.82;2.30;;;;;;;11.21;77.56;102291.81;4999984;28;20119;-57
2021/11/05 08:30:14;;;;;;;10.80;2.17;;;;;;;11.19;77.44;102289.13;4995515;28;20486;-59
2021/11/05 08:32:39;;;;;;;9.35;2.00;;;;;;;11.27;77.57;102294.63;4989947;28;20042;-57
2021/11/05 08:35:07;;;;;;;12.68;2.30;;;;;;;11.35;77.81;102299.22;4985921;28;20245;-59
2021/11/05 08:37:32;;;;;;;6.20;1.75;;;;;;;11.50;77.69;102306.69;4998824;28;20041;-56
2021/11/05 08:39:58;;;;;;;6.80;1.73;;;;;;;11.60;77.80;102306.13;4993399;28;20051;-59
2021/11/05 08:42:24;;;;;;;5.47;1.67;;;;;;;11.70;77.56;102312.56;4991984;28;20300;-57
2021/11/05 08:44:49;;;;;;;10.68;2.00;;;;;;;11.81;77.60;102308.59;4986979;28;20138;-58
2021/11/05 08:47:15;;;;;;;10.65;1.83;;;;;;;11.89;77.67;102316.66;4991598;28;20409;-58
2021/11/05 08:49:40;;;;;;;7.82;1.75;;;;;;;11.99;77.74;102314.38;5016010;28;20128;-56
2021/11/05 08:52:05;;;;;;;12.77;1.85;;;;;;;12.06;77.83;102320.69;4992784;28;20528;-59
2021/11/05 08:54:31;;;;;;;10.00;1.60;;;;;;;12.19;77.85;102323.72;4989304;28;20132;-58
2021/11/05 08:56:57;;;;;;;10.95;1.45;;;;;;;12.33;77.76;102325.81;4984068;28;20322;-58
2021/11/05 08:59:25;;;;;;;12.30;1.48;;;;;;;12.49;77.84;102330.69;4994221;28;20235;-56
2021/11/05 09:01:51;;;;;;;10.15;1.35;;;;;;;12.73;77.68;102335.72;4994710;28;20040;-58
2021/11/05 09:04:17;;;;;;;7.72;1.20;;;;;;;13.03;77.98;102339.16;4992644;28;20053;-59
2021/11/05 09:06:46;;;;;;;6.65;0.80;;;;;;;13.33;78.65;102345.22;4988139;28;20943;-58
2021/11/05 09:09:11;;;;;;;7.15;0.75;;;;;;;13.47;78.13;102340.34;4991935;28;20131;-58
2021/11/05 09:11:37;;;;;;;5.90;0.73;;;;;;;13.53;77.02;102350.97;4994037;28;20041;-57
2021/11/05 09:14:03;;;;;;;4.25;0.80;;;;;;;13.52;76.15;102350.94;4998123;28;20675;-56
2021/11/05 09:16:29;;;;;;;4.93;1.17;;;;;;;13.52;75.01;102359.69;4989818;28;20049;-55
2021/11/05 09:19:01;;;;;;;3.47;0.50;;;;;;;13.45;74.52;102362.09;4982367;28;20050;-57
2021/11/05 09:21:26;;;;;;;3.30;0.70;;;;;;;13.39;74.40;102366.34;4992986;28;20135;-58
2021/11/05 09:23:51;;;;;;;1.83;0.50;;;;;;;13.29;74.06;102369.56;4989549;28;20564;-57
2021/11/05 09:26:17;;;;;;;4.03;0.50;;;;;;;13.18;73.84;102375.34;4997567;28;20157;-57
2021/11/05 09:28:43;;;;;;;2.63;0.60;;;;;;;13.18;74.17;102383.22;4994534;28;20183;-57
2021/11/05 09:31:09;;;;;;;2.92;0.50;;;;;;;13.12;73.99;102383.00;4992396;28;20377;-56
2021/11/05 09:33:34;;;;;;;4.00;0.60;;;;;;;13.10;74.00;102383.00;4996870;28;20033;-57
2021/11/05 09:36:00;;;;;;;1.55;0.45;;;;;;;13.24;74.74;102388.59;4993363;28;20038;-55
2021/11/05 09:38:25;;;;;;;3.00;0.52;;;;;;;13.42;74.92;102389.09;4994146;28;20581;-58
2021/11/05 09:40:51;;;;;;;5.95;2.10;;;;;;;13.47;74.27;102405.84;4993154;28;20080;-57
2021/11/05 09:43:18;;;;;;;5.40;1.73;;;;;;;13.45;73.07;102399.66;4993664;28;20103;-59
2021/11/05 09:45:43;;;;;;;7.07;0.70;;;;;;;13.35;72.73;102405.53;4991345;28;20049;-58
2021/11/05 09:48:09;;;;;;;4.47;0.80;;;;;;;13.20;72.49;102411.22;4998147;28;20037;-57
2021/11/05 09:50:36;;;;;;;4.97;0.80;;;;;;;12.99;72.85;102424.56;4999379;28;20045;-59
2021/11/05 09:53:02;;;;;;;5.88;0.70;;;;;;;12.76;73.12;102430.88;4990321;28;20068;-56
2021/11/05 09:55:28;;;;;;;4.15;0.65;;;;;;;12.91;73.33;102420.88;5000998;28;20114;-57
2021/11/05 09:57:53;;;;;;;5.75;0.70;;;;;;;12.95;73.55;102429.69;4993137;28;20130;-58
2021/11/05 10:00:22;;;;;;;5.55;1.00;;;;;;;12.98;73.60;102438.53;4996409;28;20136;-55
2021/11/05 10:02:48;;;;;;;3.95;0.77;;;;;;;12.94;73.27;102427.91;4991535;28;20537;-58
2021/11/05 10:05:15;;;;;;;3.33;0.70;;;;;;;12.89;73.29;102439.97;4998954;28;20426;-55
2021/11/05 10:07:49;;;;;;;6.50;0.60;;;;;;;12.98;73.08;102437.63;4990664;28;20366;-57
2021/11/05 10:10:14;;;;;;;5.35;0.75;;;;;;;12.96;71.97;102439.31;4994175;28;20049;-56
2021/11/05 10:12:55;;;;;;;3.03;0.60;;;;;;;13.14;71.91;102439.88;4994134;28;20775;-56
2021/11/05 10:15:27;;;;;;;5.35;0.70;;;;;;;13.27;71.81;102435.84;4996632;28;20046;-57
2021/11/05 10:18:06;;;;;;;5.97;1.60;;;;;;;13.53;72.04;102445.31;4994367;28;20133;-57
2021/11/05 10:20:31;;;;;;;5.47;1.00;;;;;;;13.73;70.72;102441.44;4991121;28;20208;-57
2021/11/05 10:23:00;;;;;;;4.20;0.77;;;;;;;13.78;68.60;102441.56;4988280;28;20045;-57
2021/11/05 10:25:34;;;;;;;6.88;0.85;;;;;;;14.04;68.60;102447.44;4995029;28;20049;-57
2021/11/05 10:28:06;;;;;;;5.95;1.00;;;;;;;14.05;68.00;102452.72;5000230;28;20057;-58
2021/11/05 10:30:35;;;;;;;4.82;0.60;;;;;;;13.95;68.02;102457.72;4986392;28;20042;-58
2021/11/05 10:33:02;;;;;;;6.63;0.90;;;;;;;13.91;68.29;102456.72;4984427;28;20147;-57
2021/11/05 10:35:28;;;;;;;4.57;0.60;;;;;;;13.71;66.58;102463.22;4995082;28;20095;-58
2021/11/05 10:38:00;;;;;;;7.65;2.20;;;;;;;13.57;67.01;102461.97;4989880;28;20045;-62
2021/11/05 10:40:30;;;;;;;5.93;1.90;;;;;;;13.37;66.89;102459.72;4990586;28;20037;-55
2021/11/05 10:42:57;;;;;;;4.82;0.90;;;;;;;13.32;67.08;102460.44;4987736;28;20091;-59
2021/11/05 10:45:24;;;;;;;3.42;1.63;;;;;;;13.23;67.51;102460.19;4999980;28;20356;-58
2021/11/05 10:47:53;;;;;;;2.85;0.70;;;;;;;13.35;67.90;102465.78;4994484;28;20536;-57
2021/11/05 10:50:22;;;;;;;3.92;0.60;;;;;;;13.25;67.52;102467.22;4990557;28;20124;-56
2021/11/05 10:53:18;;;;;;;2.90;0.70;;;;;;;13.42;68.06;102469.44;4988543;28;20034;-55
2021/11/05 10:56:00;;;;;;;6.85;0.80;;;;;;;13.45;68.24;102469.50;4981726;28;20111;-55
2021/11/05 10:58:35;;;;;;;6.43;0.82;;;;;;;13.51;67.08;102472.28;4993545;28;20095;-58
2021/11/05 11:01:11;;;;;;;6.50;0.82;;;;;;;13.59;66.92;102474.28;4989134;28;20964;-57
2021/11/05 11:03:44;;;;;;;9.23;1.27;;;;;;;13.71;67.13;102478.97;4986938;28;20201;-57
2021/11/05 11:06:15;;;;;;;5.22;0.80;;;;;;;13.64;66.33;102475.28;4995109;28;20033;-57
2021/11/05 11:08:44;;;;;;;5.15;0.80;;;;;;;13.87;66.96;102482.84;4997265;28;20057;-61
2021/11/05 11:11:38;;;;;;;4.85;0.70;;;;;;;14.02;66.97;102483.25;4982940;28;20516;-59
2021/11/05 11:14:08;;;;;;;6.10;0.80;;;;;;;14.10;66.14;102487.81;4990245;28;20399;-59
2021/11/05 11:16:36;;;;;;;5.75;0.60;;;;;;;14.07;65.94;102485.13;4987370;28;20030;-60
2021/11/05 11:19:03;;;;;;;6.57;0.65;;;;;;;14.13;65.36;102487.91;4988423;28;20223;-59
2021/11/05 11:21:35;;;;;;;4.05;0.93;;;;;;;14.07;64.80;102493.00;4988590;28;20052;-58
2021/11/05 11:24:03;;;;;;;7.55;0.90;;;;;;;13.90;64.96;102489.06;4993096;28;20050;-60
2021/11/05 11:26:29;;;;;;;6.88;0.70;;;;;;;13.80;64.97;102493.19;4995843;28;20039;-57